Time;durP1;ratioP1;P1;durP2;ratioP2;P2;SDS_P1;SDS_P2;PMS_P1;PMS_P2;Temp;Humidity;BMP_temperature;BMP_pressure;BME280_temperature;BME280_humidity;BME280_pressure;Samples;Min_cycle;Max_cycle;Signal;HPM_P1;HPM_P2
2021/05/05 00:01:04;;;;;;;8.80;2.87;;;;;;;6.47;72.58;99543.72;4438500;32;20120;-80
2021/05/05 00:03:30;;;;;;;4.55;2.58;;;;;;;6.55;71.83;99541.53;4423676;32;20052;-79
2021/05/05 00:05:57;;;;;;;5.70;2.72;;;;;;;6.54;71.96;99537.19;4428385;32;20045;-79
2021/05/05 00:08:24;;;;;;;5.97;2.72;;;;;;;6.44;72.75;99541.03;4424283;32;20105;-80
2021/05/05 00:10:51;;;;;;;6.55;3.17;;;;;;;6.64;71.17;99541.69;4426524;32;20056;-80
2021/05/05 00:13:17;;;;;;;9.40;3.47;;;;;;;6.64;71.16;99538.88;4426387;32;20050;-81
2021/05/05 00:15:43;;;;;;;6.12;2.65;;;;;;;6.72;71.53;99540.28;4416523;32;20098;-79
2021/05/05 00:18:09;;;;;;;4.70;2.65;;;;;;;6.62;71.48;99546.91;4414228;32;20046;-80
2021/05/05 00:20:36;;;;;;;6.43;2.80;;;;;;;6.72;71.75;99546.63;4416495;32;20450;-80
2021/05/05 00:23:02;;;;;;;7.47;2.83;;;;;;;6.72;70.80;99552.22;4416478;32;20034;-79
2021/05/05 00:25:28;;;;;;;4.20;2.50;;;;;;;6.70;70.60;99549.09;4414342;32;20419;-80
2021/05/05 00:27:54;;;;;;;9.23;3.30;;;;;;;6.59;70.78;99553.41;4415067;32;20030;-79
2021/05/05 00:30:21;;;;;;;4.43;2.67;;;;;;;6.46;71.59;99550.56;4414970;32;20022;-79
2021/05/05 00:32:47;;;;;;;4.80;2.75;;;;;;;6.49;71.20;99554.47;4414246;32;20066;-79
2021/05/05 00:35:13;;;;;;;3.62;2.47;;;;;;;6.47;71.25;99548.56;4413475;32;20064;-80
2021/05/05 00:37:40;;;;;;;8.43;2.92;;;;;;;6.41;71.59;99548.28;4413969;32;20067;-80
2021/05/05 00:40:07;;;;;;;4.75;2.62;;;;;;;6.46;71.73;99555.34;4416018;32;20092;-78
2021/05/05 00:42:33;;;;;;;7.50;2.67;;;;;;;6.43;71.85;99550.63;4410840;32;20142;-80
2021/05/05 00:45:05;;;;;;;10.57;3.30;;;;;;;6.53;71.62;99549.59;4414084;32;20439;-78
2021/05/05 00:47:31;;;;;;;5.37;2.70;;;;;;;6.38;72.00;99551.19;4413209;32;20079;-78
2021/05/05 00:49:57;;;;;;;7.28;3.17;;;;;;;6.40;71.63;99555.09;4413986;32;20470;-77
2021/05/05 00:52:24;;;;;;;8.55;2.80;;;;;;;6.56;71.62;99557.09;4414450;32;20093;-78
2021/05/05 00:54:51;;;;;;;5.10;2.95;;;;;;;6.51;71.91;99552.81;4416022;32;20088;-78
2021/05/05 00:57:17;;;;;;;4.30;2.80;;;;;;;6.54;71.86;99560.31;4415999;32;20058;-79
2021/05/05 00:59:43;;;;;;;7.53;3.35;;;;;;;6.61;71.36;99560.13;4415089;32;20096;-79
2021/05/05 01:02:09;;;;;;;4.35;3.28;;;;;;;6.57;71.91;99559.44;4413516;32;20135;-79
2021/05/05 01:04:35;;;;;;;5.15;3.40;;;;;;;6.65;71.87;99557.22;4410978;32;20046;-78
2021/05/05 01:07:01;;;;;;;7.62;3.75;;;;;;;6.62;71.84;99561.69;4416297;32;20069;-80
2021/05/05 01:09:27;;;;;;;9.00;3.80;;;;;;;6.67;71.84;99568.75;4413251;32;20065;-79
2021/05/05 01:11:55;;;;;;;8.02;3.20;;;;;;;6.69;71.82;99557.94;4415203;32;20081;-78
2021/05/05 01:14:22;;;;;;;6.15;3.78;;;;;;;6.63;72.05;99565.28;4411777;32;20500;-80
2021/05/05 01:16:49;;;;;;;5.97;3.45;;;;;;;6.48;72.50;99566.87;4415037;32;20026;-80
2021/05/05 01:19:15;;;;;;;5.60;3.58;;;;;;;6.70;72.21;99570.66;4411931;32;20110;-80
2021/05/05 01:21:41;;;;;;;5.47;3.58;;;;;;;6.69;71.39;99564.28;4416660;32;20058;-79
2021/05/05 01:24:07;;;;;;;5.37;3.40;;;;;;;6.67;71.44;99555.56;4410714;32;20022;-80
2021/05/05 01:26:33;;;;;;;8.30;4.00;;;;;;;6.45;72.16;99567.75;4411900;32;20073;-78
2021/05/05 01:29:01;;;;;;;5.37;3.60;;;;;;;6.46;72.39;99567.31;4414381;32;20127;-77
2021/05/05 01:31:28;;;;;;;6.60;3.60;;;;;;;6.47;71.98;99562.53;4413664;32;20086;-78
2021/05/05 01:33:54;;;;;;;5.30;3.12;;;;;;;6.50;71.73;99561.66;4412600;32;20042;-77
2021/05/05 01:36:22;;;;;;;6.07;3.58;;;;;;;6.45;71.98;99567.75;4415018;32;20407;-78
2021/05/05 01:38:48;;;;;;;6.90;3.28;;;;;;;6.61;71.58;99570.50;4415178;32;20147;-78
2021/05/05 01:41:16;;;;;;;5.60;2.85;;;;;;;6.54;71.32;99565.91;4412530;32;20099;-77
2021/05/05 01:43:42;;;;;;;7.53;3.30;;;;;;;6.58;71.16;99565.81;4410233;32;20083;-79
2021/05/05 01:46:08;;;;;;;5.95;3.10;;;;;;;6.63;70.73;99565.28;4414130;32;20079;-79
2021/05/05 01:48:34;;;;;;;6.62;3.30;;;;;;;6.67;70.33;99568.75;4412766;32;20105;-79
2021/05/05 01:51:00;;;;;;;10.50;3.55;;;;;;;6.68;70.32;99565.53;4412612;32;20030;-78
2021/05/05 01:53:26;;;;;;;5.65;3.45;;;;;;;6.61;70.63;99562.12;4411992;32;20100;-78
2021/05/05 01:55:52;;;;;;;7.07;3.80;;;;;;;6.63;70.73;99568.06;4411925;32;20430;-78
2021/05/05 01:58:18;;;;;;;7.90;3.70;;;;;;;6.65;70.37;99577.59;4412074;32;20374;-79
2021/05/05 02:00:44;;;;;;;8.05;3.37;;;;;;;6.62;70.56;99577.66;4410658;32;20097;-78
2021/05/05 02:03:10;;;;;;;7.22;3.35;;;;;;;6.71;70.27;99575.03;4413104;32;20046;-78
2021/05/05 02:05:36;;;;;;;6.18;3.35;;;;;;;6.62;70.13;99572.88;4411925;32;20418;-77
2021/05/05 02:08:03;;;;;;;6.28;3.85;;;;;;;6.59;70.07;99578.56;4411516;32;20120;-79
2021/05/05 02:10:29;;;;;;;6.28;3.60;;;;;;;6.62;70.11;99586.06;4415962;32;20079;-78
2021/05/05 02:12:55;;;;;;;5.22;3.25;;;;;;;6.63;70.12;99582.06;4413814;32;20069;-77
2021/05/05 02:15:22;;;;;;;7.43;3.80;;;;;;;6.52;70.56;99584.31;4411744;32;20046;-77
2021/05/05 02:17:50;;;;;;;5.95;3.50;;;;;;;6.51;70.38;99589.16;4415776;32;20094;-81
2021/05/05 02:20:19;;;;;;;15.20;4.20;;;;;;;6.55;70.47;99578.66;4414313;32;20042;-78
2021/05/05 02:22:47;;;;;;;7.12;3.65;;;;;;;6.48;70.74;99590.03;4413145;32;20065;-78
2021/05/05 02:25:13;;;;;;;7.30;3.70;;;;;;;6.38;71.22;99584.72;4412045;32;20579;-78
2021/05/05 02:27:41;;;;;;;6.10;3.62;;;;;;;6.35;71.32;99588.38;4415654;32;20074;-79
2021/05/05 02:30:09;;;;;;;5.50;3.50;;;;;;;6.38;71.27;99590.31;4413178;32;20093;-78
2021/05/05 02:32:36;;;;;;;8.23;4.00;;;;;;;6.38;71.19;99598.69;4414112;32;20451;-79
2021/05/05 02:35:05;;;;;;;8.07;4.62;;;;;;;6.42;71.36;99599.38;4412146;32;20038;-78
2021/05/05 02:37:31;;;;;;;7.28;4.07;;;;;;;6.38;71.31;99593.09;4412253;32;20040;-77
2021/05/05 02:39:57;;;;;;;6.22;3.53;;;;;;;6.31;71.44;99591.25;4413952;32;20076;-78
2021/05/05 02:42:22;;;;;;;6.90;4.12;;;;;;;6.31;71.09;99596.03;4413466;32;20038;-78
2021/05/05 02:44:49;;;;;;;8.32;3.67;;;;;;;6.33;70.93;99593.59;4410931;32;20070;-79
2021/05/05 02:47:18;;;;;;;8.13;4.10;;;;;;;6.29;70.92;99587.34;4410750;32;20101;-79
2021/05/05 02:49:43;;;;;;;9.93;4.47;;;;;;;6.25;71.25;99597.78;4413615;32;20062;-77
2021/05/05 02:52:09;;;;;;;7.47;4.25;;;;;;;6.24;71.46;99599.03;4413153;32;20422;-78
2021/05/05 02:54:35;;;;;;;10.52;4.37;;;;;;;6.16;71.34;99600.44;4410746;32;20048;-78
2021/05/05 02:57:02;;;;;;;11.57;4.12;;;;;;;6.19;71.21;99607.94;4413673;32;20070;-78
2021/05/05 02:59:28;;;;;;;8.45;4.55;;;;;;;6.18;71.21;99606.34;4410764;32;20232;-77
2021/05/05 03:01:55;;;;;;;7.07;4.57;;;;;;;6.20;70.73;99609.50;4412405;32;20365;-79
2021/05/05 03:04:21;;;;;;;7.12;4.20;;;;;;;6.14;71.07;99601.62;4409113;32;20037;-78
2021/05/05 03:06:46;;;;;;;7.55;4.35;;;;;;;6.10;71.35;99606.53;4413241;32;20456;-77
2021/05/05 03:09:13;;;;;;;7.35;4.20;;;;;;;6.04;71.34;99611.06;4414363;32;20086;-78
2021/05/05 03:11:39;;;;;;;12.98;4.93;;;;;;;5.92;72.17;99602.56;4412510;32;20141;-79
2021/05/05 03:14:05;;;;;;;8.88;4.50;;;;;;;6.01;71.78;99614.72;4411753;32;20494;-79
2021/05/05 03:16:31;;;;;;;7.95;4.43;;;;;;;6.00;71.48;99607.59;4412079;32;20076;-77
2021/05/05 03:18:57;;;;;;;6.78;3.90;;;;;;;5.99;71.42;99614.38;4413050;32;20034;-77
2021/05/05 03:21:22;;;;;;;9.68;4.07;;;;;;;5.93;71.56;99613.31;4411058;32;20088;-79
2021/05/05 03:23:48;;;;;;;10.18;3.72;;;;;;;5.97;71.00;99616.03;4412751;32;20050;-79
2021/05/05 03:26:14;;;;;;;12.27;3.67;;;;;;;6.09;70.43;99618.13;4412581;32;20438;-78
2021/05/05 03:28:40;;;;;;;5.80;3.40;;;;;;;6.06;69.87;99613.44;4411560;32;20206;-79
2021/05/05 03:31:06;;;;;;;6.47;3.00;;;;;;;6.12;69.32;99618.06;4410979;32;20419;-79
2021/05/05 03:33:32;;;;;;;5.10;3.15;;;;;;;6.06;69.43;99616.22;4412402;32;20026;-79
2021/05/05 03:35:58;;;;;;;5.97;3.40;;;;;;;6.07;69.93;99614.97;4411625;32;20389;-79
2021/05/05 03:38:24;;;;;;;8.25;3.60;;;;;;;6.02;69.59;99615.53;4413595;32;20528;-79
2021/05/05 03:40:50;;;;;;;8.18;3.65;;;;;;;6.09;69.72;99618.13;4410869;32;20103;-79
2021/05/05 03:43:16;;;;;;;6.70;3.55;;;;;;;6.08;69.62;99620.13;4411364;32;20050;-79
2021/05/05 03:45:41;;;;;;;6.97;3.30;;;;;;;6.11;69.05;99621.28;4409912;32;20065;-79
2021/05/05 03:48:08;;;;;;;8.70;3.58;;;;;;;6.12;68.93;99623.66;4410421;32;20094;-78
2021/05/05 03:50:35;;;;;;;7.18;3.45;;;;;;;6.17;68.90;99627.13;4416174;32;20120;-78
2021/05/05 03:53:01;;;;;;;10.88;3.60;;;;;;;6.15;68.98;99635.94;4413253;32;20112;-79
2021/05/05 03:55:27;;;;;;;6.57;3.37;;;;;;;6.02;69.52;99640.66;4414392;32;20085;-78
2021/05/05 03:57:53;;;;;;;7.03;3.17;;;;;;;6.01;69.60;99644.66;4415935;32;20063;-79
2021/05/05 04:00:19;;;;;;;8.50;3.40;;;;;;;6.03;69.01;99643.00;4414468;32;20057;-78
2021/05/05 04:02:45;;;;;;;6.57;3.40;;;;;;;5.99;69.11;99647.88;4414212;32;20147;-78
2021/05/05 04:05:12;;;;;;;6.20;3.62;;;;;;;6.00;69.00;99649.47;4414632;32;20031;-80
2021/05/05 04:07:38;;;;;;;7.55;3.97;;;;;;;5.97;69.44;99649.53;4412831;32;20059;-78
2021/05/05 04:10:05;;;;;;;8.57;3.40;;;;;;;5.85;69.24;99653.78;4411117;32;20089;-78
2021/05/05 04:12:31;;;;;;;7.30;2.92;;;;;;;5.91;69.00;99646.47;4415314;32;20081;-77
2021/05/05 04:14:57;;;;;;;7.22;3.70;;;;;;;5.87;69.10;99640.16;4412406;32;20073;-78
2021/05/05 04:17:24;;;;;;;9.48;3.95;;;;;;;5.80;69.72;99657.06;4413348;32;20058;-78
2021/05/05 04:19:53;;;;;;;8.55;3.42;;;;;;;5.91;69.25;99652.06;4415745;32;20090;-78
2021/05/05 04:22:19;;;;;;;6.32;2.92;;;;;;;5.94;69.27;99653.19;4413141;32;20038;-78
2021/05/05 04:24:45;;;;;;;10.85;3.60;;;;;;;5.88;69.38;99655.72;4414620;32;20092;-78
2021/05/05 04:27:11;;;;;;;8.88;3.78;;;;;;;5.83;69.38;99653.44;4416118;32;20049;-80
2021/05/05 04:29:37;;;;;;;6.70;3.40;;;;;;;5.82;69.76;99660.25;4415591;32;20077;-79
2021/05/05 04:32:02;;;;;;;7.47;3.70;;;;;;;5.85;69.78;99653.00;4412389;32;20026;-78
2021/05/05 04:34:28;;;;;;;7.60;3.03;;;;;;;5.83;69.56;99658.25;4413351;32;20045;-79
2021/05/05 04:36:54;;;;;;;9.77;3.67;;;;;;;5.82;68.95;99662.25;4414242;32;20026;-79
2021/05/05 04:39:21;;;;;;;8.15;3.25;;;;;;;5.89;68.96;99671.25;4414445;32;20030;-79
2021/05/05 04:41:46;;;;;;;8.95;3.35;;;;;;;5.89;68.40;99668.44;4413634;32;20065;-78
2021/05/05 04:44:13;;;;;;;17.73;4.28;;;;;;;5.92;68.34;99686.34;4413910;32;20057;-79
2021/05/05 04:46:38;;;;;;;9.75;3.30;;;;;;;5.96;68.15;99689.84;4414650;32;20042;-77
2021/05/05 04:49:04;;;;;;;7.87;3.22;;;;;;;5.95;68.29;99691.84;4415953;32;20152;-80
2021/05/05 04:51:30;;;;;;;11.32;3.30;;;;;;;5.95;68.41;99693.84;4415527;32;20101;-79
2021/05/05 04:53:56;;;;;;;7.53;3.25;;;;;;;5.97;68.80;99695.00;4412828;32;20093;-78
2021/05/05 04:56:21;;;;;;;8.13;3.85;;;;;;;6.00;68.78;99705.31;4412791;32;20381;-79
2021/05/05 04:58:48;;;;;;;8.85;2.90;;;;;;;6.06;68.80;99700.78;4414010;32;20451;-78
2021/05/05 05:01:14;;;;;;;10.68;2.80;;;;;;;6.13;68.50;99703.41;4411434;32;20065;-79
2021/05/05 05:03:39;;;;;;;11.35;3.78;;;;;;;6.16;68.76;99709.38;4410993;32;20121;-79
2021/05/05 05:06:05;;;;;;;12.15;3.25;;;;;;;6.17;68.98;99710.94;4413008;32;20093;-80
2021/05/05 05:08:30;;;;;;;6.85;3.00;;;;;;;6.26;68.34;99699.94;4415293;32;20048;-78
2021/05/05 05:10:56;;;;;;;5.30;2.67;;;;;;;6.38;67.36;99704.84;4411757;32;20064;-79
2021/05/05 05:13:22;;;;;;;8.20;2.78;;;;;;;6.42;67.18;99700.75;4413051;32;20354;-79
2021/05/05 05:15:48;;;;;;;7.03;3.17;;;;;;;6.53;66.72;99703.28;4410221;32;20022;-80
2021/05/05 05:18:14;;;;;;;8.10;2.83;;;;;;;6.57;66.82;99698.41;4412620;32;20057;-80
2021/05/05 05:20:40;;;;;;;4.62;2.42;;;;;;;6.63;65.55;99705.03;4413076;32;20053;-79
2021/05/05 05:23:06;;;;;;;6.90;2.47;;;;;;;6.72;65.48;99705.22;4413296;32;20057;-79
2021/05/05 05:25:33;;;;;;;5.90;2.45;;;;;;;6.76;65.62;99708.69;4410842;32;20074;-80
2021/05/05 05:27:58;;;;;;;12.00;2.72;;;;;;;6.84;65.23;99704.50;4412440;32;20037;-79
2021/05/05 05:30:24;;;;;;;5.60;2.50;;;;;;;6.88;64.45;99708.78;4415637;32;20091;-79
2021/05/05 05:32:50;;;;;;;11.05;2.50;;;;;;;6.95;64.34;99711.41;4412839;32;20198;-79
2021/05/05 05:35:16;;;;;;;6.68;2.40;;;;;;;7.08;63.85;99728.22;4413431;32;20109;-80
2021/05/05 05:37:42;;;;;;;10.77;2.42;;;;;;;7.18;64.70;99732.78;4409931;32;20471;-79
2021/05/05 05:40:09;;;;;;;6.72;2.17;;;;;;;7.24;63.38;99731.03;4412422;32;20022;-79
2021/05/05 05:42:35;;;;;;;7.82;2.00;;;;;;;7.32;62.48;99740.78;4411205;32;20073;-79
2021/05/05 05:45:00;;;;;;;7.90;2.00;;;;;;;7.39;62.77;99738.59;4413599;32;20048;-79
2021/05/05 05:47:26;;;;;;;7.72;2.95;;;;;;;7.34;62.19;99750.31;4412081;32;20348;-79
2021/05/05 05:49:52;;;;;;;9.05;2.12;;;;;;;7.43;61.20;99744.88;4413119;32;20344;-79
2021/05/05 05:52:18;;;;;;;4.93;1.73;;;;;;;7.46;61.41;99749.56;4412993;32;20142;-78
2021/05/05 05:54:44;;;;;;;4.00;1.83;;;;;;;7.54;61.22;99742.56;4410899;32;20046;-79
2021/05/05 05:57:09;;;;;;;3.55;1.67;;;;;;;7.57;60.59;99732.50;4414355;32;20077;-80
2021/05/05 05:59:36;;;;;;;6.97;1.67;;;;;;;7.65;60.21;99745.88;4413461;32;20115;-81
2021/05/05 06:02:02;;;;;;;4.57;1.58;;;;;;;7.65;60.43;99750.69;4414066;32;20091;-79
2021/05/05 06:04:27;;;;;;;6.97;1.45;;;;;;;7.81;59.40;99747.81;4413158;32;20096;-79
2021/05/05 06:06:53;;;;;;;3.83;1.40;;;;;;;7.87;59.34;99740.44;4410054;32;20434;-79
2021/05/05 06:09:19;;;;;;;5.95;1.70;;;;;;;7.87;59.16;99751.63;4413130;32;20063;-79
2021/05/05 06:11:45;;;;;;;5.37;2.12;;;;;;;7.84;58.95;99758.94;4411895;32;20137;-79
2021/05/05 06:14:12;;;;;;;6.37;1.65;;;;;;;7.86;59.47;99755.69;4410541;32;20513;-79
2021/05/05 06:16:38;;;;;;;5.18;1.30;;;;;;;7.93;58.56;99764.66;4411991;32;20370;-79
2021/05/05 06:19:04;;;;;;;5.22;1.48;;;;;;;8.06;57.84;99771.06;4411605;32;20038;-79
2021/05/05 06:21:30;;;;;;;8.30;1.55;;;;;;;8.13;57.57;99768.06;4410557;32;20439;-79
2021/05/05 06:23:55;;;;;;;3.17;1.23;;;;;;;8.14;58.39;99760.44;4411240;32;20439;-79
2021/05/05 06:26:22;;;;;;;8.10;2.05;;;;;;;8.19;57.87;99773.91;4409870;32;20041;-79
2021/05/05 06:28:47;;;;;;;9.57;2.40;;;;;;;8.27;57.45;99766.88;4411488;32;20046;-79
2021/05/05 06:31:13;;;;;;;5.78;1.40;;;;;;;8.25;56.90;99768.56;4408727;32;20076;-79
2021/05/05 06:33:39;;;;;;;10.40;2.10;;;;;;;8.35;56.61;99775.88;4410055;32;20081;-79
2021/05/05 06:36:06;;;;;;;9.05;1.20;;;;;;;8.21;54.89;99771.44;4405441;32;20085;-79
2021/05/05 06:38:32;;;;;;;8.82;1.58;;;;;;;8.47;55.29;99770.25;4402660;32;20037;-76
2021/05/05 06:40:57;;;;;;;8.98;1.27;;;;;;;8.45;54.91;99771.94;4406006;32;20720;-77
2021/05/05 06:43:23;;;;;;;6.22;1.42;;;;;;;8.45;54.80;99774.75;4406400;32;20734;-75
2021/05/05 06:45:49;;;;;;;3.17;1.30;;;;;;;8.52;54.97;99780.13;4401968;32;20698;-77
2021/05/05 06:48:14;;;;;;;7.50;1.60;;;;;;;8.80;53.32;99773.66;4406717;32;20089;-77
2021/05/05 06:50:40;;;;;;;7.60;1.42;;;;;;;8.99;53.92;99776.19;4405991;32;20042;-76
2021/05/05 06:53:06;;;;;;;7.28;1.10;;;;;;;9.10;51.57;99787.06;4403989;32;20083;-76
2021/05/05 06:55:32;;;;;;;3.03;1.20;;;;;;;8.93;51.89;99785.63;4409086;32;20458;-76
2021/05/05 06:57:58;;;;;;;7.35;1.52;;;;;;;8.95;50.90;99794.38;4404030;32;20795;-75
2021/05/05 07:00:24;;;;;;;8.13;1.45;;;;;;;9.00;51.37;99788.22;4403396;32;20715;-77
2021/05/05 07:02:51;;;;;;;5.28;1.00;;;;;;;9.13;52.47;99791.78;4400588;32;20508;-76
2021/05/05 07:05:17;;;;;;;7.15;1.12;;;;;;;9.21;50.35;99796.69;4402878;32;20137;-77
2021/05/05 07:07:43;;;;;;;9.50;1.40;;;;;;;9.15;49.57;99806.94;4399083;32;20078;-78
2021/05/05 07:10:11;;;;;;;7.82;1.45;;;;;;;9.31;48.84;99795.56;4402602;32;20140;-77
2021/05/05 07:12:36;;;;;;;8.63;1.42;;;;;;;9.46;49.60;99799.47;4400822;32;20111;-77
2021/05/05 07:15:05;;;;;;;10.25;3.67;;;;;;;9.55;49.35;99798.75;4399283;32;20115;-77
2021/05/05 07:17:30;;;;;;;10.13;1.20;;;;;;;9.62;49.58;99799.28;4398557;32;20577;-77
2021/05/05 07:19:56;;;;;;;8.02;1.45;;;;;;;9.75;46.81;99814.06;4397340;32;20504;-78
2021/05/05 07:22:22;;;;;;;7.53;1.15;;;;;;;9.77;46.82;99808.00;4401053;32;20462;-77
2021/05/05 07:24:48;;;;;;;6.32;1.30;;;;;;;9.90;48.22;99805.91;4399146;32;20110;-79
2021/05/05 07:27:15;;;;;;;7.70;1.50;;;;;;;9.79;46.85;99806.28;4402960;32;20076;-76
2021/05/05 07:29:41;;;;;;;10.23;1.33;;;;;;;9.87;47.26;99804.03;4404430;32;20081;-77
2021/05/05 07:32:08;;;;;;;3.50;1.12;;;;;;;9.97;46.64;99812.06;4404573;32;21172;-76
2021/05/05 07:34:34;;;;;;;5.47;1.33;;;;;;;10.11;47.81;99819.22;4402437;32;20139;-80
2021/05/05 07:37:05;;;;;;;8.85;2.80;;;;;;;10.34;47.40;99806.75;4403991;32;20142;-77
2021/05/05 07:45:10;;;;;;;8.65;1.98;;;;;;;11.10;47.52;99824.59;3978587;32;15022130;-77
2021/05/05 07:47:39;;;;;;;9.43;1.73;;;;;;;11.10;47.52;99824.59;4434622;32;20045;-77
2021/05/05 07:50:09;;;;;;;9.05;1.95;;;;;;;10.86;47.20;99817.97;4438003;32;20125;-77
2021/05/05 07:52:35;;;;;;;10.80;1.58;;;;;;;10.93;45.09;99815.66;4437348;32;20096;-76
2021/05/05 07:55:02;;;;;;;11.80;1.30;;;;;;;11.00;47.29;99820.97;4439483;32;20429;-76
2021/05/05 07:57:28;;;;;;;8.95;1.60;;;;;;;10.90;45.75;99818.59;4427996;32;20160;-78
2021/05/05 07:59:54;;;;;;;5.65;1.75;;;;;;;10.78;46.69;99817.44;4440653;32;20077;-76
2021/05/05 08:02:20;;;;;;;8.07;1.62;;;;;;;10.88;46.77;99824.69;4422675;32;20474;-77
2021/05/05 08:04:49;;;;;;;11.15;1.70;;;;;;;10.94;47.32;99813.59;4419476;32;20448;-77
2021/05/05 08:07:17;;;;;;;8.27;1.20;;;;;;;11.03;46.62;99816.44;4421289;32;20033;-77
2021/05/05 08:09:43;;;;;;;15.50;2.53;;;;;;;11.04;47.61;99820.81;4420747;32;20183;-77
2021/05/05 08:12:11;;;;;;;10.35;1.80;;;;;;;11.34;46.68;99820.78;4419203;32;20446;-78
2021/05/05 08:14:37;;;;;;;8.70;1.52;;;;;;;11.51;46.12;99824.09;4423388;32;20105;-78
2021/05/05 08:17:03;;;;;;;14.35;1.67;;;;;;;11.67;45.35;99812.56;4419777;32;20088;-78
2021/05/05 08:19:29;;;;;;;9.05;1.30;;;;;;;11.82;42.97;99814.28;4422749;32;20513;-78
2021/05/05 08:21:55;;;;;;;9.82;1.23;;;;;;;12.01;43.22;99823.53;4424062;32;20073;-78
2021/05/05 08:24:21;;;;;;;7.40;1.20;;;;;;;11.90;42.61;99831.66;4422055;32;20041;-77
2021/05/05 08:26:49;;;;;;;7.37;1.40;;;;;;;11.90;41.37;99835.28;4420648;32;20064;-77
2021/05/05 08:29:15;;;;;;;4.05;1.23;;;;;;;12.02;41.64;99842.00;4425640;32;20066;-77
2021/05/05 08:31:41;;;;;;;6.43;1.00;;;;;;;11.95;43.23;99840.31;4423156;32;20104;-77
2021/05/05 08:34:07;;;;;;;9.13;1.25;;;;;;;11.97;41.08;99839.84;4416042;32;20089;-78
2021/05/05 08:36:32;;;;;;;7.72;1.42;;;;;;;12.05;41.40;99839.03;4423047;32;20677;-78
2021/05/05 08:38:58;;;;;;;15.27;1.95;;;;;;;12.15;42.73;99839.81;4425014;32;20130;-78
2021/05/05 08:41:24;;;;;;;12.00;1.95;;;;;;;12.45;43.69;99849.37;4423503;32;20142;-78
2021/05/05 08:43:50;;;;;;;13.98;2.50;;;;;;;12.86;42.25;99842.97;4423271;32;20415;-80
2021/05/05 08:46:17;;;;;;;4.10;1.00;;;;;;;13.27;41.30;99851.47;4423078;32;20060;-77
2021/05/05 08:48:45;;;;;;;11.00;1.30;;;;;;;13.71;39.31;99851.66;4420561;32;20529;-78
2021/05/05 08:51:12;;;;;;;4.97;0.98;;;;;;;13.79;38.10;99856.50;4419891;32;20070;-78
2021/05/05 08:53:41;;;;;;;6.43;1.35;;;;;;;14.00;37.66;99858.22;4424794;32;20093;-79
2021/05/05 08:56:07;;;;;;;4.12;1.20;;;;;;;14.28;36.07;99861.66;4409500;32;20069;-78
2021/05/05 08:58:33;;;;;;;5.50;1.20;;;;;;;14.02;36.15;99850.03;4410588;32;20078;-78
2021/05/05 09:01:00;;;;;;;6.30;0.98;;;;;;;14.04;37.62;99861.66;4403986;32;20099;-79
2021/05/05 09:03:37;;;;;;;5.12;1.27;;;;;;;13.94;36.82;99854.47;4413551;32;20546;-77
2021/05/05 09:06:04;;;;;;;6.72;1.23;;;;;;;14.19;37.27;99853.19;4405622;32;20070;-77
2021/05/05 09:08:31;;;;;;;2.30;0.88;;;;;;;14.21;35.81;99862.00;4411759;32;20145;-78
2021/05/05 09:13:55;;;;;;;5.03;0.90;;;;;;;14.52;34.20;99861.59;3978394;32;15027930;-78
2021/05/05 09:21:39;;;;;;;6.20;0.95;;;;;;;14.07;32.63;99866.34;3978286;32;15035268;-81
2021/05/05 09:27:00;;;;;;;2.47;0.70;;;;;;;15.14;32.94;99885.63;3925266;32;15026746;-77
2021/05/05 09:29:47;;;;;;;5.80;0.88;;;;;;;15.14;32.94;99885.63;4369286;32;20108;-80
2021/05/05 09:32:15;;;;;;;3.47;0.75;;;;;;;15.11;32.34;99877.31;4369272;32;20095;-79
2021/05/05 09:34:43;;;;;;;5.53;0.98;;;;;;;15.70;31.41;99881.59;4369036;32;20070;-79
2021/05/05 09:37:11;;;;;;;4.07;1.00;;;;;;;15.78;31.59;99885.59;4369420;32;20094;-78
2021/05/05 09:39:39;;;;;;;5.07;0.90;;;;;;;16.30;30.87;99883.66;4372867;32;20063;-76
2021/05/05 09:47:56;;;;;;;2.35;0.52;;;;;;;14.87;30.57;99899.28;3980034;32;15023785;-75
2021/05/05 09:50:40;;;;;;;3.75;0.60;;;;;;;14.87;30.57;99899.28;4436964;32;20179;-77
2021/05/05 10:03:54;;;;;;;4.05;1.10;;;;;;;15.98;30.10;99902.63;3986140;31;15014224;-76
2021/05/05 10:06:24;;;;;;;2.90;0.75;;;;;;;15.98;30.10;99902.63;4448641;32;20494;-77
2021/05/05 10:08:53;;;;;;;5.68;1.10;;;;;;;15.57;31.09;99883.97;4447571;32;20609;-77
2021/05/05 10:11:20;;;;;;;10.13;1.10;;;;;;;15.79;29.56;99909.84;4444958;32;20073;-77
2021/05/05 10:13:51;;;;;;;7.90;1.02;;;;;;;16.80;30.10;99908.53;4446682;32;20108;-78
2021/05/05 10:16:18;;;;;;;3.37;0.65;;;;;;;17.21;28.44;99909.94;4443436;32;20489;-77
2021/05/05 10:18:46;;;;;;;2.70;0.77;;;;;;;17.96;27.31;99918.03;4445876;32;20056;-77
2021/05/05 10:21:14;;;;;;;3.50;1.10;;;;;;;17.77;26.54;99931.87;4446023;32;20672;-78
2021/05/05 10:23:42;;;;;;;4.80;0.82;;;;;;;16.67;28.01;99930.88;4445390;32;20049;-77
2021/05/05 10:26:11;;;;;;;2.78;0.90;;;;;;;16.49;29.34;99919.81;4446166;32;20458;-79
2021/05/05 10:28:38;;;;;;;5.15;1.10;;;;;;;16.64;29.84;99920.50;4444950;32;20052;-79
2021/05/05 10:31:09;;;;;;;3.70;0.90;;;;;;;16.45;29.32;99941.97;4443714;32;20109;-78
2021/05/05 10:33:40;;;;;;;8.10;1.10;;;;;;;15.89;29.79;99928.28;4444794;32;20545;-79
2021/05/05 10:36:28;;;;;;;5.72;1.05;;;;;;;15.22;31.00;99931.34;4445321;32;20128;-78
2021/05/05 10:38:54;;;;;;;5.82;0.73;;;;;;;15.58;30.59;99936.59;4447843;32;20109;-78
2021/05/05 10:41:22;;;;;;;3.25;1.20;;;;;;;15.55;29.47;99935.53;4446189;32;20097;-79
2021/05/05 10:43:51;;;;;;;4.62;0.85;;;;;;;15.87;29.81;99937.28;4446870;32;20042;-79
2021/05/05 10:46:24;;;;;;;6.50;1.17;;;;;;;16.12;30.72;99929.38;4437065;32;20077;-78
2021/05/05 10:49:12;;;;;;;4.87;0.95;;;;;;;16.50;29.35;99938.41;4445845;32;20120;-77
2021/05/05 10:54:42;;;;;;;4.87;1.10;;;;;;;16.29;29.24;99941.75;3978745;32;15028108;-79
2021/05/05 11:05:21;;;;;;;3.90;1.07;;;;;;;16.61;30.47;99944.22;3967563;32;15022353;-75
2021/05/05 11:21:08;;;;;;;4.15;1.10;;;;;;;16.75;29.43;99931.97;3963948;32;15026200;-76
2021/05/05 11:26:30;;;;;;;5.72;0.98;;;;;;;16.85;28.42;99941.94;3988082;31;15014966;-77
2021/05/05 11:39:53;;;;;;;3.20;1.10;;;;;;;17.27;27.83;99938.44;3966910;32;15025868;-77
2021/05/05 11:45:00;;;;;;;7.32;1.10;;;;;;;18.77;26.09;99940.91;3974931;32;15036637;-77
2021/05/05 11:47:31;;;;;;;2.00;0.80;;;;;;;18.77;26.09;99940.91;4428993;32;20164;-76
2021/05/05 11:50:00;;;;;;;8.57;1.00;;;;;;;19.26;25.24;99929.62;4427041;32;20524;-76
2021/05/05 11:52:33;;;;;;;4.47;1.20;;;;;;;19.35;25.42;99937.16;4430251;32;20073;-76
2021/05/05 11:57:49;;;;;;;3.20;1.50;;;;;;;18.33;26.06;99943.56;3950486;32;15737614;-78
2021/05/05 12:05:35;;;;;;;4.50;1.10;;;;;;;17.11;27.98;99942.69;3978192;32;15026547;-78
2021/05/05 12:16:15;;;;;;;6.05;1.17;;;;;;;18.55;28.71;99938.00;3965599;32;15025888;-78
2021/05/05 12:18:45;;;;;;;4.47;1.30;;;;;;;18.55;28.71;99938.00;4416114;32;20079;-77
2021/05/05 12:21:16;;;;;;;5.80;1.70;;;;;;;18.33;29.30;99917.94;4419286;32;20179;-77
2021/05/05 12:23:44;;;;;;;11.40;1.50;;;;;;;19.05;27.72;99913.25;4412351;32;20164;-80
2021/05/05 12:28:57;;;;;;;6.97;1.42;;;;;;;18.90;25.72;99924.13;3967786;32;15029264;-77
2021/05/05 12:31:25;;;;;;;2.15;0.90;;;;;;;18.64;26.93;99917.81;4419553;32;20094;-77
2021/05/05 12:33:52;;;;;;;4.95;1.02;;;;;;;18.18;28.59;99917.34;4418760;32;20125;-78
2021/05/05 12:36:21;;;;;;;4.00;1.08;;;;;;;18.34;28.76;99925.97;4419808;32;20178;-77
2021/05/05 12:38:50;;;;;;;5.37;1.00;;;;;;;18.51;26.85;99917.53;4419000;32;20723;-79
2021/05/05 12:41:18;;;;;;;3.55;1.10;;;;;;;18.60;26.13;99914.44;4416260;32;20073;-78
2021/05/05 12:43:46;;;;;;;4.00;1.15;;;;;;;18.27;26.42;99917.13;4414891;32;20116;-77
2021/05/05 12:48:58;;;;;;;3.72;0.82;;;;;;;16.77;30.45;99928.62;3979830;32;15027737;-75
2021/05/05 12:51:26;;;;;;;7.93;1.27;;;;;;;16.77;30.45;99928.62;4434788;32;20084;-76
2021/05/05 12:56:45;;;;;;;4.18;0.98;;;;;;;16.17;32.18;99928.69;3973217;32;15026153;-76
2021/05/05 12:59:14;;;;;;;6.55;1.27;;;;;;;16.17;32.18;99928.69;4421042;32;20611;-75
2021/05/05 13:01:40;;;;;;;5.95;1.20;;;;;;;15.51;32.69;99932.13;4417102;32;20034;-75
2021/05/05 13:04:07;;;;;;;8.00;1.30;;;;;;;15.35;32.94;99929.78;4408168;32;20108;-75
2021/05/05 13:06:48;;;;;;;7.60;1.10;;;;;;;15.07;32.98;99939.81;4407890;32;20047;-74
2021/05/05 13:11:53;;;;;;;7.68;1.33;;;;;;;14.84;34.84;99920.88;3978603;32;15025502;-76
2021/05/05 13:17:50;;;;;;;6.18;1.40;;;;;;;15.27;35.32;99931.44;3978470;32;15022001;-76
2021/05/05 13:31:30;;;;;;;9.90;1.27;;;;;;;14.94;36.17;99930.09;4426712;32;20072;-75